Main page
METAR-TAF:

METAR-TAF

Airports :

Beauvais–Tillé Airport

Beauvais, France

latitude: 49-28N, longitude: 002-07E, elevation: 109 m

Current weather observation

The report was made 31 minutes ago, at 22:00 UTC
Wind 2 kt from variable directions
Temperature 11°C
Humidity 94%
Pressure 1021 hPa
Visibility 10 km or more
no clouds below 1500 m and no cumulonimbus

METAR: LFOB 222200Z AUTO VRB02KT CAVOK 11/10 Q1021 NOSIG

Time: 00:31 (22:31 UTC)

Forecast

The report was made 5 hours and 31 minutes ago, at 17:00 UTC
Forecast valid from 22 at 18 UTC to 23 at 18 UTC
Wind 6 kt from the East
Visibility 10 km or more
Overcast at a height of 800 ft
Becoming
from 22 at 22 UTC to 22 at 24 UTC
Temporary
from 23 at 00 UTC to 23 at 07 UTC
Visibility: 4000 m
Broken clouds at a height of 4000 ft
rain, mist

TAF: LFOB 221700Z 2218/2318 08006KT 9999 OVC008 BECMG 2222/2224 NSC TEMPO 2300/2307 4000 RA BR BKN040

Weather observations and forecasts of more than 4000 airports (METAR and TAF reports).

The available stations are represented by yellow and red dots on the map.

Hover mouse over dot to see the name of the station.

Then click to see weather observations and forecasts.

To change the map : click on the green buttons with a black cross to zoom in, on the green button with a dash to zoom out, or on the green arrows for adjacent maps.


METAR-TAF: